sensor_id;sensor_type;location;lat;lon;timestamp;temperature;humidity
13598;DHT22;38563;54.258;12.574;2022-08-18T00:01:47;20.00;99.90
13598;DHT22;38563;54.258;12.574;2022-08-18T00:04:15;20.10;99.90
13598;DHT22;38563;54.258;12.574;2022-08-18T00:06:41;20.20;99.90
13598;DHT22;38563;54.258;12.574;2022-08-18T00:09:09;20.30;99.90
13598;DHT22;38563;54.258;12.574;2022-08-18T00:11:39;20.40;99.90
13598;DHT22;38563;54.258;12.574;2022-08-18T00:14:07;20.40;99.90
13598;DHT22;38563;54.258;12.574;2022-08-18T00:16:34;20.50;99.90
13598;DHT22;38563;54.258;12.574;2022-08-18T00:19:00;20.50;99.90
13598;DHT22;38563;54.258;12.574;2022-08-18T00:21:27;20.50;99.90
13598;DHT22;38563;54.258;12.574;2022-08-18T00:23:54;20.60;99.90
13598;DHT22;38563;54.258;12.574;2022-08-18T00:26:21;20.60;99.90
13598;DHT22;38563;54.258;12.574;2022-08-18T00:28:52;20.60;99.90
13598;DHT22;38563;54.258;12.574;2022-08-18T00:31:18;20.60;99.90
13598;DHT22;38563;54.258;12.574;2022-08-18T00:33:45;20.60;99.90
13598;DHT22;38563;54.258;12.574;2022-08-18T00:36:12;20.60;99.90
13598;DHT22;38563;54.258;12.574;2022-08-18T00:38:39;20.60;99.90
13598;DHT22;38563;54.258;12.574;2022-08-18T00:41:06;20.60;99.90
13598;DHT22;38563;54.258;12.574;2022-08-18T00:43:36;20.60;99.90
13598;DHT22;38563;54.258;12.574;2022-08-18T00:46:07;20.60;99.90
13598;DHT22;38563;54.258;12.574;2022-08-18T00:48:34;20.70;99.90
13598;DHT22;38563;54.258;12.574;2022-08-18T00:51:04;20.60;99.90
13598;DHT22;38563;54.258;12.574;2022-08-18T00:53:35;20.60;99.90
13598;DHT22;38563;54.258;12.574;2022-08-18T00:56:05;20.50;99.90
13598;DHT22;38563;54.258;12.574;2022-08-18T00:58:36;20.50;99.90
13598;DHT22;38563;54.258;12.574;2022-08-18T01:01:06;20.50;99.90
13598;DHT22;38563;54.258;12.574;2022-08-18T01:03:35;20.50;99.90
13598;DHT22;38563;54.258;12.574;2022-08-18T01:06:08;20.50;99.90
13598;DHT22;38563;54.258;12.574;2022-08-18T01:08:39;20.50;99.90
13598;DHT22;38563;54.258;12.574;2022-08-18T01:11:06;20.50;99.90
13598;DHT22;38563;54.258;12.574;2022-08-18T01:13:39;20.50;99.90
13598;DHT22;38563;54.258;12.574;2022-08-18T01:16:08;20.40;99.90
13598;DHT22;38563;54.258;12.574;2022-08-18T01:18:52;20.40;99.90
13598;DHT22;38563;54.258;12.574;2022-08-18T01:21:39;20.40;99.90
13598;DHT22;38563;54.258;12.574;2022-08-18T01:24:18;20.40;99.90
13598;DHT22;38563;54.258;12.574;2022-08-18T01:26:46;20.50;99.90
13598;DHT22;38563;54.258;12.574;2022-08-18T01:29:16;20.50;99.90
13598;DHT22;38563;54.258;12.574;2022-08-18T01:31:46;20.60;99.90
13598;DHT22;38563;54.258;12.574;2022-08-18T01:34:15;20.60;99.90
13598;DHT22;38563;54.258;12.574;2022-08-18T01:36:42;20.80;99.90
13598;DHT22;38563;54.258;12.574;2022-08-18T01:39:11;20.90;99.90
13598;DHT22;38563;54.258;12.574;2022-08-18T01:41:39;21.00;99.90
13598;DHT22;38563;54.258;12.574;2022-08-18T01:44:06;21.10;99.90
13598;DHT22;38563;54.258;12.574;2022-08-18T01:46:38;21.10;99.90
13598;DHT22;38563;54.258;12.574;2022-08-18T01:49:06;21.20;99.90
13598;DHT22;38563;54.258;12.574;2022-08-18T01:51:34;21.10;99.90
13598;DHT22;38563;54.258;12.574;2022-08-18T01:54:03;21.00;99.90
13598;DHT22;38563;54.258;12.574;2022-08-18T01:56:30;20.90;99.90
13598;DHT22;38563;54.258;12.574;2022-08-18T01:58:58;20.70;99.90
13598;DHT22;38563;54.258;12.574;2022-08-18T02:01:25;20.60;99.90
13598;DHT22;38563;54.258;12.574;2022-08-18T02:03:55;20.30;99.90
13598;DHT22;38563;54.258;12.574;2022-08-18T02:06:24;20.10;99.90
13598;DHT22;38563;54.258;12.574;2022-08-18T02:08:51;19.90;99.90
13598;DHT22;38563;54.258;12.574;2022-08-18T02:11:17;19.70;99.90
13598;DHT22;38563;54.258;12.574;2022-08-18T02:13:44;19.60;99.90
13598;DHT22;38563;54.258;12.574;2022-08-18T02:16:12;19.50;99.90
13598;DHT22;38563;54.258;12.574;2022-08-18T02:18:39;19.50;99.90
13598;DHT22;38563;54.258;12.574;2022-08-18T02:21:08;19.50;99.90
13598;DHT22;38563;54.258;12.574;2022-08-18T02:23:35;19.50;99.90
13598;DHT22;38563;54.258;12.574;2022-08-18T02:26:04;19.50;99.90
13598;DHT22;38563;54.258;12.574;2022-08-18T02:28:31;19.50;99.90
13598;DHT22;38563;54.258;12.574;2022-08-18T02:31:03;19.50;99.90
13598;DHT22;38563;54.258;12.574;2022-08-18T02:33:31;19.50;99.90
13598;DHT22;38563;54.258;12.574;2022-08-18T02:35:58;19.50;99.90
13598;DHT22;38563;54.258;12.574;2022-08-18T02:38:25;19.50;99.90
13598;DHT22;38563;54.258;12.574;2022-08-18T02:40:54;19.50;99.90
13598;DHT22;38563;54.258;12.574;2022-08-18T02:43:21;19.50;99.90
13598;DHT22;38563;54.258;12.574;2022-08-18T02:45:48;19.50;99.90
13598;DHT22;38563;54.258;12.574;2022-08-18T02:48:15;19.50;99.90
13598;DHT22;38563;54.258;12.574;2022-08-18T02:50:44;19.50;99.90
13598;DHT22;38563;54.258;12.574;2022-08-18T02:53:12;19.50;99.90
13598;DHT22;38563;54.258;12.574;2022-08-18T02:55:44;19.50;99.90
13598;DHT22;38563;54.258;12.574;2022-08-18T02:58:10;19.40;99.90
13598;DHT22;38563;54.258;12.574;2022-08-18T03:00:37;19.40;99.90
13598;DHT22;38563;54.258;12.574;2022-08-18T03:03:05;19.30;99.90
13598;DHT22;38563;54.258;12.574;2022-08-18T03:05:31;19.20;99.90
13598;DHT22;38563;54.258;12.574;2022-08-18T03:08:00;19.20;99.90
13598;DHT22;38563;54.258;12.574;2022-08-18T03:10:26;19.20;99.90
13598;DHT22;38563;54.258;12.574;2022-08-18T03:12:53;19.10;99.90
13598;DHT22;38563;54.258;12.574;2022-08-18T03:15:20;19.00;99.90
13598;DHT22;38563;54.258;12.574;2022-08-18T03:17:47;19.00;99.90
13598;DHT22;38563;54.258;12.574;2022-08-18T03:20:13;19.00;99.90
13598;DHT22;38563;54.258;12.574;2022-08-18T03:22:40;19.00;99.90
13598;DHT22;38563;54.258;12.574;2022-08-18T03:25:09;19.00;99.90
13598;DHT22;38563;54.258;12.574;2022-08-18T03:27:35;18.90;99.90
13598;DHT22;38563;54.258;12.574;2022-08-18T03:30:03;18.90;99.90
13598;DHT22;38563;54.258;12.574;2022-08-18T03:32:30;18.80;99.90
13598;DHT22;38563;54.258;12.574;2022-08-18T03:34:56;18.80;99.90
13598;DHT22;38563;54.258;12.574;2022-08-18T03:37:24;18.80;99.90
13598;DHT22;38563;54.258;12.574;2022-08-18T03:39:50;18.80;99.90
13598;DHT22;38563;54.258;12.574;2022-08-18T03:42:18;18.80;99.90
13598;DHT22;38563;54.258;12.574;2022-08-18T03:44:45;18.80;99.90
13598;DHT22;38563;54.258;12.574;2022-08-18T03:47:12;18.70;99.90
13598;DHT22;38563;54.258;12.574;2022-08-18T03:49:38;18.60;99.90
13598;DHT22;38563;54.258;12.574;2022-08-18T03:52:07;18.60;99.90
13598;DHT22;38563;54.258;12.574;2022-08-18T03:54:34;18.60;99.90
13598;DHT22;38563;54.258;12.574;2022-08-18T03:57:01;18.60;99.90
13598;DHT22;38563;54.258;12.574;2022-08-18T03:59:29;18.60;99.90
13598;DHT22;38563;54.258;12.574;2022-08-18T04:01:56;18.50;99.90
13598;DHT22;38563;54.258;12.574;2022-08-18T04:04:25;18.60;99.90
13598;DHT22;38563;54.258;12.574;2022-08-18T04:06:54;18.60;99.90
13598;DHT22;38563;54.258;12.574;2022-08-18T04:09:22;18.60;99.90
13598;DHT22;38563;54.258;12.574;2022-08-18T04:11:50;18.60;99.90
13598;DHT22;38563;54.258;12.574;2022-08-18T04:14:19;18.70;99.90
13598;DHT22;38563;54.258;12.574;2022-08-18T04:16:48;18.60;99.90
13598;DHT22;38563;54.258;12.574;2022-08-18T04:19:15;18.60;99.90
13598;DHT22;38563;54.258;12.574;2022-08-18T04:21:44;18.60;99.90
13598;DHT22;38563;54.258;12.574;2022-08-18T04:24:12;18.70;99.90
13598;DHT22;38563;54.258;12.574;2022-08-18T04:26:41;18.70;99.90
13598;DHT22;38563;54.258;12.574;2022-08-18T04:29:10;18.70;99.90
13598;DHT22;38563;54.258;12.574;2022-08-18T04:31:37;18.80;99.90
13598;DHT22;38563;54.258;12.574;2022-08-18T04:34:06;18.80;99.90
13598;DHT22;38563;54.258;12.574;2022-08-18T04:36:34;18.90;99.90
13598;DHT22;38563;54.258;12.574;2022-08-18T04:39:03;18.90;99.90
13598;DHT22;38563;54.258;12.574;2022-08-18T04:41:30;19.00;99.90
13598;DHT22;38563;54.258;12.574;2022-08-18T04:43:58;19.00;99.90
13598;DHT22;38563;54.258;12.574;2022-08-18T04:46:26;19.10;99.90
13598;DHT22;38563;54.258;12.574;2022-08-18T04:48:54;19.10;99.90
13598;DHT22;38563;54.258;12.574;2022-08-18T04:51:26;19.10;99.90
13598;DHT22;38563;54.258;12.574;2022-08-18T04:53:54;19.10;99.90
13598;DHT22;38563;54.258;12.574;2022-08-18T04:56:22;19.10;99.90
13598;DHT22;38563;54.258;12.574;2022-08-18T04:58:52;19.20;99.90
13598;DHT22;38563;54.258;12.574;2022-08-18T05:01:24;19.20;99.90
13598;DHT22;38563;54.258;12.574;2022-08-18T05:03:52;19.30;99.90
13598;DHT22;38563;54.258;12.574;2022-08-18T05:06:20;19.30;99.90
13598;DHT22;38563;54.258;12.574;2022-08-18T05:08:51;19.50;99.90
13598;DHT22;38563;54.258;12.574;2022-08-18T05:11:19;19.50;99.90
13598;DHT22;38563;54.258;12.574;2022-08-18T05:13:47;19.60;99.90
13598;DHT22;38563;54.258;12.574;2022-08-18T05:16:14;19.60;99.90
13598;DHT22;38563;54.258;12.574;2022-08-18T05:18:41;19.70;99.90
13598;DHT22;38563;54.258;12.574;2022-08-18T05:21:08;19.70;99.90
13598;DHT22;38563;54.258;12.574;2022-08-18T05:23:38;19.80;99.90
13598;DHT22;38563;54.258;12.574;2022-08-18T05:26:07;19.90;99.90
13598;DHT22;38563;54.258;12.574;2022-08-18T05:28:35;19.90;99.90
13598;DHT22;38563;54.258;12.574;2022-08-18T05:31:06;19.90;99.90
13598;DHT22;38563;54.258;12.574;2022-08-18T05:33:33;19.90;99.90
13598;DHT22;38563;54.258;12.574;2022-08-18T05:36:03;20.00;99.90
13598;DHT22;38563;54.258;12.574;2022-08-18T05:38:39;20.10;99.90
13598;DHT22;38563;54.258;12.574;2022-08-18T05:41:10;20.20;99.90
13598;DHT22;38563;54.258;12.574;2022-08-18T05:43:38;20.20;99.90
13598;DHT22;38563;54.258;12.574;2022-08-18T05:46:07;20.20;99.90
13598;DHT22;38563;54.258;12.574;2022-08-18T05:48:35;20.30;99.90
13598;DHT22;38563;54.258;12.574;2022-08-18T05:51:10;20.40;99.90
13598;DHT22;38563;54.258;12.574;2022-08-18T05:53:39;20.40;99.90
13598;DHT22;38563;54.258;12.574;2022-08-18T05:56:27;20.40;99.90
13598;DHT22;38563;54.258;12.574;2022-08-18T05:59:18;20.50;99.90
13598;DHT22;38563;54.258;12.574;2022-08-18T06:01:49;20.60;99.90
13598;DHT22;38563;54.258;12.574;2022-08-18T06:07:09;20.70;99.90
13598;DHT22;38563;54.258;12.574;2022-08-18T06:09:41;20.80;99.90
13598;DHT22;38563;54.258;12.574;2022-08-18T06:12:23;20.90;99.90
13598;DHT22;38563;54.258;12.574;2022-08-18T06:14:51;21.00;99.90
13598;DHT22;38563;54.258;12.574;2022-08-18T06:20:20;21.20;99.90
13598;DHT22;38563;54.258;12.574;2022-08-18T06:22:53;21.30;99.90
13598;DHT22;38563;54.258;12.574;2022-08-18T06:25:28;21.40;99.90
13598;DHT22;38563;54.258;12.574;2022-08-18T06:28:05;21.50;99.90
13598;DHT22;38563;54.258;12.574;2022-08-18T06:30:43;21.50;99.90
13598;DHT22;38563;54.258;12.574;2022-08-18T06:36:06;21.70;99.90
13598;DHT22;38563;54.258;12.574;2022-08-18T06:38:46;21.80;99.90
13598;DHT22;38563;54.258;12.574;2022-08-18T06:41:19;21.90;99.90
13598;DHT22;38563;54.258;12.574;2022-08-18T06:43:57;22.10;99.90
13598;DHT22;38563;54.258;12.574;2022-08-18T06:46:31;22.20;99.90
13598;DHT22;38563;54.258;12.574;2022-08-18T06:49:04;22.30;99.90
13598;DHT22;38563;54.258;12.574;2022-08-18T06:51:33;22.30;99.90
13598;DHT22;38563;54.258;12.574;2022-08-18T06:54:02;22.40;99.90
13598;DHT22;38563;54.258;12.574;2022-08-18T06:56:44;22.40;99.90
13598;DHT22;38563;54.258;12.574;2022-08-18T06:59:20;22.50;99.90
13598;DHT22;38563;54.258;12.574;2022-08-18T07:01:51;22.60;99.90
13598;DHT22;38563;54.258;12.574;2022-08-18T07:04:40;22.80;99.90
13598;DHT22;38563;54.258;12.574;2022-08-18T07:07:30;22.90;99.90
13598;DHT22;38563;54.258;12.574;2022-08-18T07:09:58;23.10;99.90
13598;DHT22;38563;54.258;12.574;2022-08-18T07:12:27;23.20;99.90
13598;DHT22;38563;54.258;12.574;2022-08-18T07:14:57;23.30;99.90
13598;DHT22;38563;54.258;12.574;2022-08-18T07:17:28;23.30;99.90
13598;DHT22;38563;54.258;12.574;2022-08-18T07:20:01;23.30;99.90
13598;DHT22;38563;54.258;12.574;2022-08-18T07:22:28;23.50;99.90
13598;DHT22;38563;54.258;12.574;2022-08-18T07:24:57;23.60;99.90
13598;DHT22;38563;54.258;12.574;2022-08-18T07:27:43;23.80;99.90
13598;DHT22;38563;54.258;12.574;2022-08-18T07:30:25;23.90;99.90
13598;DHT22;38563;54.258;12.574;2022-08-18T07:32:56;23.90;99.90
13598;DHT22;38563;54.258;12.574;2022-08-18T07:35:28;23.90;99.90
13598;DHT22;38563;54.258;12.574;2022-08-18T07:38:00;24.00;99.90
13598;DHT22;38563;54.258;12.574;2022-08-18T07:40:34;24.10;99.90
13598;DHT22;38563;54.258;12.574;2022-08-18T07:43:05;24.20;99.90
13598;DHT22;38563;54.258;12.574;2022-08-18T07:45:39;24.40;99.90
13598;DHT22;38563;54.258;12.574;2022-08-18T07:48:12;24.40;99.90
13598;DHT22;38563;54.258;12.574;2022-08-18T07:50:44;24.40;99.90
13598;DHT22;38563;54.258;12.574;2022-08-18T07:53:26;24.50;99.90
13598;DHT22;38563;54.258;12.574;2022-08-18T07:56:05;24.60;99.90
13598;DHT22;38563;54.258;12.574;2022-08-18T07:58:36;24.70;99.90
13598;DHT22;38563;54.258;12.574;2022-08-18T08:01:13;24.80;99.90
13598;DHT22;38563;54.258;12.574;2022-08-18T08:03:50;25.00;99.90
13598;DHT22;38563;54.258;12.574;2022-08-18T08:06:23;25.10;99.90
13598;DHT22;38563;54.258;12.574;2022-08-18T08:08:59;25.20;99.90
13598;DHT22;38563;54.258;12.574;2022-08-18T08:11:37;25.30;99.90
13598;DHT22;38563;54.258;12.574;2022-08-18T08:14:16;25.30;99.90
13598;DHT22;38563;54.258;12.574;2022-08-18T08:16:50;25.40;99.90
13598;DHT22;38563;54.258;12.574;2022-08-18T08:22:28;25.60;99.90
13598;DHT22;38563;54.258;12.574;2022-08-18T08:25:02;25.60;99.90
13598;DHT22;38563;54.258;12.574;2022-08-18T08:27:39;25.70;99.90
13598;DHT22;38563;54.258;12.574;2022-08-18T08:30:11;25.70;99.90
13598;DHT22;38563;54.258;12.574;2022-08-18T08:32:47;25.90;99.90
13598;DHT22;38563;54.258;12.574;2022-08-18T08:35:17;26.00;99.90
13598;DHT22;38563;54.258;12.574;2022-08-18T08:37:48;26.30;99.90
13598;DHT22;38563;54.258;12.574;2022-08-18T08:40:21;26.60;99.90
13598;DHT22;38563;54.258;12.574;2022-08-18T08:42:53;26.90;99.90
13598;DHT22;38563;54.258;12.574;2022-08-18T08:45:25;26.90;99.90
13598;DHT22;38563;54.258;12.574;2022-08-18T08:47:59;27.00;99.90
13598;DHT22;38563;54.258;12.574;2022-08-18T08:50:29;27.10;99.90
13598;DHT22;38563;54.258;12.574;2022-08-18T08:52:59;27.30;99.90
13598;DHT22;38563;54.258;12.574;2022-08-18T08:55:30;27.90;99.90
13598;DHT22;38563;54.258;12.574;2022-08-18T08:58:10;28.40;99.90
13598;DHT22;38563;54.258;12.574;2022-08-18T09:00:39;28.40;99.90
13598;DHT22;38563;54.258;12.574;2022-08-18T09:03:25;28.70;99.90
13598;DHT22;38563;54.258;12.574;2022-08-18T09:06:12;28.90;99.90
13598;DHT22;38563;54.258;12.574;2022-08-18T09:08:57;28.80;99.90
13598;DHT22;38563;54.258;12.574;2022-08-18T09:14:48;29.00;99.90
13598;DHT22;38563;54.258;12.574;2022-08-18T09:17:40;28.60;99.90
13598;DHT22;38563;54.258;12.574;2022-08-18T09:20:27;28.20;99.90
13598;DHT22;38563;54.258;12.574;2022-08-18T09:23:02;28.10;99.90
13598;DHT22;38563;54.258;12.574;2022-08-18T09:25:33;28.30;99.90
13598;DHT22;38563;54.258;12.574;2022-08-18T09:28:12;28.40;99.90
13598;DHT22;38563;54.258;12.574;2022-08-18T09:30:50;28.50;99.90
13598;DHT22;38563;54.258;12.574;2022-08-18T09:33:24;28.50;99.90
13598;DHT22;38563;54.258;12.574;2022-08-18T09:36:11;28.40;99.90
13598;DHT22;38563;54.258;12.574;2022-08-18T09:38:48;28.20;99.90
13598;DHT22;38563;54.258;12.574;2022-08-18T09:41:36;28.10;99.90
13598;DHT22;38563;54.258;12.574;2022-08-18T09:44:13;28.00;99.90
13598;DHT22;38563;54.258;12.574;2022-08-18T09:46:57;28.00;99.90
13598;DHT22;38563;54.258;12.574;2022-08-18T09:49:43;28.00;99.90
13598;DHT22;38563;54.258;12.574;2022-08-18T09:58:53;28.30;99.90
13598;DHT22;38563;54.258;12.574;2022-08-18T10:01:30;28.40;99.90
13598;DHT22;38563;54.258;12.574;2022-08-18T10:04:24;28.50;99.90
13598;DHT22;38563;54.258;12.574;2022-08-18T10:06:51;28.50;99.90
13598;DHT22;38563;54.258;12.574;2022-08-18T10:09:26;28.60;99.90
13598;DHT22;38563;54.258;12.574;2022-08-18T10:12:21;28.70;99.90
13598;DHT22;38563;54.258;12.574;2022-08-18T10:15:02;28.80;99.90
13598;DHT22;38563;54.258;12.574;2022-08-18T10:17:48;28.90;99.90
13598;DHT22;38563;54.258;12.574;2022-08-18T10:20:38;29.00;99.90
13598;DHT22;38563;54.258;12.574;2022-08-18T10:23:08;28.90;99.90
13598;DHT22;38563;54.258;12.574;2022-08-18T10:25:38;29.00;99.90
13598;DHT22;38563;54.258;12.574;2022-08-18T10:28:08;29.20;99.90
13598;DHT22;38563;54.258;12.574;2022-08-18T10:31:03;29.30;99.90
13598;DHT22;38563;54.258;12.574;2022-08-18T10:33:56;29.60;99.90
13598;DHT22;38563;54.258;12.574;2022-08-18T10:36:40;29.80;99.90
13598;DHT22;38563;54.258;12.574;2022-08-18T10:39:12;29.90;99.90
13598;DHT22;38563;54.258;12.574;2022-08-18T10:41:55;29.90;99.90
13598;DHT22;38563;54.258;12.574;2022-08-18T10:44:24;29.90;99.90
13598;DHT22;38563;54.258;12.574;2022-08-18T10:46:55;30.00;99.90
13598;DHT22;38563;54.258;12.574;2022-08-18T10:49:24;29.70;99.90
13598;DHT22;38563;54.258;12.574;2022-08-18T10:58:04;29.40;99.90
13598;DHT22;38563;54.258;12.574;2022-08-18T11:00:45;29.60;99.90
13598;DHT22;38563;54.258;12.574;2022-08-18T11:03:23;29.70;99.90
13598;DHT22;38563;54.258;12.574;2022-08-18T11:06:00;29.70;99.90
13598;DHT22;38563;54.258;12.574;2022-08-18T11:08:28;29.60;99.90
13598;DHT22;38563;54.258;12.574;2022-08-18T11:10:54;29.40;99.90
13598;DHT22;38563;54.258;12.574;2022-08-18T11:13:25;29.30;99.90
13598;DHT22;38563;54.258;12.574;2022-08-18T11:16:02;29.60;99.90
13598;DHT22;38563;54.258;12.574;2022-08-18T11:18:40;29.90;99.90
13598;DHT22;38563;54.258;12.574;2022-08-18T11:21:39;30.30;99.90
13598;DHT22;38563;54.258;12.574;2022-08-18T11:24:13;30.50;99.90
13598;DHT22;38563;54.258;12.574;2022-08-18T11:26:43;30.60;99.90
13598;DHT22;38563;54.258;12.574;2022-08-18T11:29:30;30.70;99.90
13598;DHT22;38563;54.258;12.574;2022-08-18T11:32:06;30.90;99.90
13598;DHT22;38563;54.258;12.574;2022-08-18T11:34:39;30.80;99.90
13598;DHT22;38563;54.258;12.574;2022-08-18T11:37:08;31.00;99.90
13598;DHT22;38563;54.258;12.574;2022-08-18T11:39:45;31.30;99.90
13598;DHT22;38563;54.258;12.574;2022-08-18T11:42:15;31.50;99.90
13598;DHT22;38563;54.258;12.574;2022-08-18T11:44:43;31.50;99.90
13598;DHT22;38563;54.258;12.574;2022-08-18T11:47:15;31.10;99.90
13598;DHT22;38563;54.258;12.574;2022-08-18T11:49:55;31.20;99.90
13598;DHT22;38563;54.258;12.574;2022-08-18T11:52:26;31.50;99.90
13598;DHT22;38563;54.258;12.574;2022-08-18T11:55:00;31.80;99.90
13598;DHT22;38563;54.258;12.574;2022-08-18T11:57:39;31.80;99.90
13598;DHT22;38563;54.258;12.574;2022-08-18T12:03:18;31.80;99.90
13598;DHT22;38563;54.258;12.574;2022-08-18T12:05:49;32.10;99.90
13598;DHT22;38563;54.258;12.574;2022-08-18T12:08:20;32.20;99.90
13598;DHT22;38563;54.258;12.574;2022-08-18T12:10:48;32.30;99.90
13598;DHT22;38563;54.258;12.574;2022-08-18T12:13:21;32.30;99.90
13598;DHT22;38563;54.258;12.574;2022-08-18T12:16:07;32.00;99.90
13598;DHT22;38563;54.258;12.574;2022-08-18T12:18:34;32.10;99.90
13598;DHT22;38563;54.258;12.574;2022-08-18T12:21:02;32.10;99.90
13598;DHT22;38563;54.258;12.574;2022-08-18T12:23:29;32.20;99.90
13598;DHT22;38563;54.258;12.574;2022-08-18T12:25:56;32.20;99.90
13598;DHT22;38563;54.258;12.574;2022-08-18T12:28:22;32.00;99.90
13598;DHT22;38563;54.258;12.574;2022-08-18T12:30:51;31.90;99.90
13598;DHT22;38563;54.258;12.574;2022-08-18T12:33:18;32.10;99.90
13598;DHT22;38563;54.258;12.574;2022-08-18T12:35:44;32.30;99.90
13598;DHT22;38563;54.258;12.574;2022-08-18T12:38:13;32.10;99.90
13598;DHT22;38563;54.258;12.574;2022-08-18T12:40:42;32.00;99.90
13598;DHT22;38563;54.258;12.574;2022-08-18T12:43:09;32.10;99.90
13598;DHT22;38563;54.258;12.574;2022-08-18T12:45:36;32.30;99.90
13598;DHT22;38563;54.258;12.574;2022-08-18T12:48:04;32.70;99.90
13598;DHT22;38563;54.258;12.574;2022-08-18T12:50:31;33.00;99.90
13598;DHT22;38563;54.258;12.574;2022-08-18T12:52:58;32.80;99.90
13598;DHT22;38563;54.258;12.574;2022-08-18T12:55:27;32.90;99.90
13598;DHT22;38563;54.258;12.574;2022-08-18T12:57:53;32.90;99.90
13598;DHT22;38563;54.258;12.574;2022-08-18T13:00:20;32.80;99.90
13598;DHT22;38563;54.258;12.574;2022-08-18T13:02:47;32.80;99.90
13598;DHT22;38563;54.258;12.574;2022-08-18T13:05:14;33.00;99.90
13598;DHT22;38563;54.258;12.574;2022-08-18T13:07:40;32.80;99.90
13598;DHT22;38563;54.258;12.574;2022-08-18T13:10:08;32.40;99.90
13598;DHT22;38563;54.258;12.574;2022-08-18T13:12:36;31.60;99.90
13598;DHT22;38563;54.258;12.574;2022-08-18T13:15:04;31.60;99.90
13598;DHT22;38563;54.258;12.574;2022-08-18T13:17:34;31.70;99.90
13598;DHT22;38563;54.258;12.574;2022-08-18T13:20:04;31.30;99.90
13598;DHT22;38563;54.258;12.574;2022-08-18T13:22:32;31.10;99.90
13598;DHT22;38563;54.258;12.574;2022-08-18T13:25:00;31.20;99.90
13598;DHT22;38563;54.258;12.574;2022-08-18T13:27:27;31.20;99.90
13598;DHT22;38563;54.258;12.574;2022-08-18T13:29:54;31.00;99.90
13598;DHT22;38563;54.258;12.574;2022-08-18T13:32:21;30.80;99.90
13598;DHT22;38563;54.258;12.574;2022-08-18T13:34:50;31.00;99.90
13598;DHT22;38563;54.258;12.574;2022-08-18T13:37:17;31.00;99.90
13598;DHT22;38563;54.258;12.574;2022-08-18T13:39:43;30.70;99.90
13598;DHT22;38563;54.258;12.574;2022-08-18T13:42:10;30.70;99.90
13598;DHT22;38563;54.258;12.574;2022-08-18T13:44:37;30.80;99.90
13598;DHT22;38563;54.258;12.574;2022-08-18T13:47:05;31.10;99.90
13598;DHT22;38563;54.258;12.574;2022-08-18T13:49:32;31.40;99.90
13598;DHT22;38563;54.258;12.574;2022-08-18T13:51:59;31.30;99.90
13598;DHT22;38563;54.258;12.574;2022-08-18T13:54:27;31.30;99.90
13598;DHT22;38563;54.258;12.574;2022-08-18T13:56:54;31.50;99.90
13598;DHT22;38563;54.258;12.574;2022-08-18T13:59:22;31.30;99.90
13598;DHT22;38563;54.258;12.574;2022-08-18T14:01:49;31.00;99.90
13598;DHT22;38563;54.258;12.574;2022-08-18T14:04:19;31.20;99.90
13598;DHT22;38563;54.258;12.574;2022-08-18T14:06:46;31.30;99.90
13598;DHT22;38563;54.258;12.574;2022-08-18T14:09:12;31.50;99.90
13598;DHT22;38563;54.258;12.574;2022-08-18T14:11:39;31.10;99.90
13598;DHT22;38563;54.258;12.574;2022-08-18T14:14:06;31.20;99.90
13598;DHT22;38563;54.258;12.574;2022-08-18T14:16:33;31.10;99.90
13598;DHT22;38563;54.258;12.574;2022-08-18T14:19:00;31.00;99.90
13598;DHT22;38563;54.258;12.574;2022-08-18T14:21:48;31.10;99.90
13598;DHT22;38563;54.258;12.574;2022-08-18T14:24:33;31.40;99.90
13598;DHT22;38563;54.258;12.574;2022-08-18T14:27:18;31.30;99.90
13598;DHT22;38563;54.258;12.574;2022-08-18T14:29:45;31.20;99.90
13598;DHT22;38563;54.258;12.574;2022-08-18T14:32:13;31.10;99.90
13598;DHT22;38563;54.258;12.574;2022-08-18T14:34:41;31.10;99.90
13598;DHT22;38563;54.258;12.574;2022-08-18T14:37:11;31.10;99.90
13598;DHT22;38563;54.258;12.574;2022-08-18T14:39:37;31.20;99.90
13598;DHT22;38563;54.258;12.574;2022-08-18T14:42:04;31.30;99.90
13598;DHT22;38563;54.258;12.574;2022-08-18T14:44:31;31.40;99.90
13598;DHT22;38563;54.258;12.574;2022-08-18T14:46:58;31.00;99.90
13598;DHT22;38563;54.258;12.574;2022-08-18T14:49:25;31.10;99.90
13598;DHT22;38563;54.258;12.574;2022-08-18T14:51:51;31.40;99.90
13598;DHT22;38563;54.258;12.574;2022-08-18T14:54:20;31.40;99.90
13598;DHT22;38563;54.258;12.574;2022-08-18T14:56:46;31.20;99.90
13598;DHT22;38563;54.258;12.574;2022-08-18T14:59:14;31.10;99.90
13598;DHT22;38563;54.258;12.574;2022-08-18T15:01:41;31.00;99.90
13598;DHT22;38563;54.258;12.574;2022-08-18T15:04:08;30.90;99.90
13598;DHT22;38563;54.258;12.574;2022-08-18T15:06:36;30.80;99.90
13598;DHT22;38563;54.258;12.574;2022-08-18T15:09:04;30.70;99.90
13598;DHT22;38563;54.258;12.574;2022-08-18T15:11:32;30.60;99.90
13598;DHT22;38563;54.258;12.574;2022-08-18T15:13:59;30.80;99.90
13598;DHT22;38563;54.258;12.574;2022-08-18T15:16:26;30.40;99.90
13598;DHT22;38563;54.258;12.574;2022-08-18T15:18:53;30.40;99.90
13598;DHT22;38563;54.258;12.574;2022-08-18T15:21:19;30.40;99.90
13598;DHT22;38563;54.258;12.574;2022-08-18T15:24:09;30.40;99.90
13598;DHT22;38563;54.258;12.574;2022-08-18T15:26:55;30.40;99.90
13598;DHT22;38563;54.258;12.574;2022-08-18T15:29:22;30.30;99.90
13598;DHT22;38563;54.258;12.574;2022-08-18T15:31:49;30.50;99.90
13598;DHT22;38563;54.258;12.574;2022-08-18T15:34:16;30.40;99.90
13598;DHT22;38563;54.258;12.574;2022-08-18T15:36:43;30.20;99.90
13598;DHT22;38563;54.258;12.574;2022-08-18T15:39:11;29.90;99.90
13598;DHT22;38563;54.258;12.574;2022-08-18T15:41:39;29.30;99.90
13598;DHT22;38563;54.258;12.574;2022-08-18T15:44:08;28.80;99.90
13598;DHT22;38563;54.258;12.574;2022-08-18T15:46:36;28.40;99.90
13598;DHT22;38563;54.258;12.574;2022-08-18T15:49:04;28.20;99.90
13598;DHT22;38563;54.258;12.574;2022-08-18T15:51:32;27.90;99.90
13598;DHT22;38563;54.258;12.574;2022-08-18T15:53:59;27.70;99.90
13598;DHT22;38563;54.258;12.574;2022-08-18T15:56:26;27.40;99.90
13598;DHT22;38563;54.258;12.574;2022-08-18T15:58:54;27.30;99.90
13598;DHT22;38563;54.258;12.574;2022-08-18T16:01:23;27.10;99.90
13598;DHT22;38563;54.258;12.574;2022-08-18T16:03:51;27.00;99.90
13598;DHT22;38563;54.258;12.574;2022-08-18T16:06:21;26.90;99.90
13598;DHT22;38563;54.258;12.574;2022-08-18T16:08:48;26.80;99.90
13598;DHT22;38563;54.258;12.574;2022-08-18T16:11:16;26.70;99.90